Time;durP1;ratioP1;P1;durP2;ratioP2;P2;SDS_P1;SDS_P2;PMS_P1;PMS_P2;Temp;Humidity;BMP_temperature;BMP_pressure;BME280_temperature;BME280_humidity;BME280_pressure;Samples;Min_cycle;Max_cycle;Signal;HPM_P1;HPM_P2
2022/01/14 00:00:50;;;;;;;6.38;1.63;;;26.30;70.30;;;;;;4131053;28;20042;-38
2022/01/14 00:03:13;;;;;;;5.88;1.98;;;26.30;70.30;;;;;;4133809;28;20038;-38
2022/01/14 00:05:35;;;;;;;5.55;1.60;;;26.40;70.50;;;;;;4130699;28;20046;-37
2022/01/14 00:07:57;;;;;;;11.93;2.03;;;26.40;70.60;;;;;;4124559;28;20053;-40
2022/01/14 00:10:20;;;;;;;5.88;1.73;;;26.40;70.70;;;;;;4129429;28;20037;-38
2022/01/14 00:12:51;;;;;;;5.85;2.35;;;26.40;70.90;;;;;;4125865;28;20042;-38
2022/01/14 00:15:24;;;;;;;8.68;2.08;;;26.50;70.90;;;;;;4127711;28;20052;-38
2022/01/14 00:17:46;;;;;;;12.52;2.65;;;26.50;70.80;;;;;;4129381;28;20046;-39
2022/01/14 00:20:10;;;;;;;8.93;1.77;;;26.50;70.80;;;;;;4127524;28;20045;-38
2022/01/14 00:22:32;;;;;;;18.13;2.67;;;26.50;70.90;;;;;;4131684;28;20064;-42
2022/01/14 00:32:54;;;;;;;10.70;2.00;;;26.60;71.00;;;;;;4129528;28;20112;-41
2022/01/14 00:35:17;;;;;;;4.90;1.83;;;26.60;71.00;;;;;;4127244;28;20449;-37
2022/01/14 00:37:39;;;;;;;10.55;2.00;;;26.60;71.20;;;;;;4127860;28;20037;-38
2022/01/14 00:40:01;;;;;;;9.05;2.05;;;26.60;71.10;;;;;;4129233;28;20068;-38
2022/01/14 00:42:24;;;;;;;8.57;2.53;;;26.60;71.20;;;;;;4130116;28;20148;-42
2022/01/14 00:44:47;;;;;;;13.07;2.38;;;26.70;71.70;;;;;;4129825;28;20054;-37
2022/01/14 00:47:10;;;;;;;7.32;1.88;;;26.70;71.50;;;;;;4126546;28;20038;-40
2022/01/14 00:49:33;;;;;;;11.45;2.35;;;26.70;71.50;;;;;;4129858;28;20416;-40
2022/01/14 00:51:57;;;;;;;6.17;2.00;;;26.70;71.40;;;;;;4124627;28;20053;-42
2022/01/14 00:54:18;;;;;;;;;;;26.80;71.40;;;;;;4124806;28;20054;-37
2022/01/14 00:59:16;;;;;;;19.63;2.72;;;26.80;71.60;;;;;;4125971;28;20033;-43
2022/01/14 01:01:39;;;;;;;13.77;2.08;;;26.80;71.80;;;;;;4130724;28;20121;-38
2022/01/14 01:04:02;;;;;;;10.60;1.90;;;26.80;71.70;;;;;;4130263;28;20095;-45
2022/01/14 01:06:27;;;;;;;6.30;1.80;;;26.90;71.80;;;;;;4127215;28;20349;-42
2022/01/14 01:08:52;;;;;;;8.82;2.10;;;26.90;71.70;;;;;;4133151;28;20070;-45
2022/01/14 01:11:14;;;;;;;9.07;2.20;;;26.90;71.60;;;;;;4126003;28;20042;-40
2022/01/14 01:13:42;;;;;;;7.93;2.17;;;26.90;71.70;;;;;;4117714;28;20034;-40
2022/01/14 01:16:04;;;;;;;4.55;1.70;;;27.00;71.70;;;;;;4130853;28;20030;-42
2022/01/14 01:18:27;;;;;;;7.28;1.95;;;27.00;71.60;;;;;;4125708;28;20033;-40
2022/01/14 01:20:50;;;;;;;7.70;1.77;;;27.00;71.60;;;;;;4125907;28;20043;-40
2022/01/14 01:23:13;;;;;;;5.57;1.73;;;27.00;71.70;;;;;;4129946;28;20038;-39
2022/01/14 01:25:44;;;;;;;7.25;1.85;;;27.00;71.70;;;;;;4126189;28;20058;-39
2022/01/14 01:28:07;;;;;;;5.25;1.88;;;27.10;72.00;;;;;;4128569;28;20049;-38
2022/01/14 01:32:51;;;;;;;8.05;1.80;;;27.10;72.60;;;;;;4127979;28;20029;-38
2022/01/14 01:35:16;;;;;;;3.35;1.80;;;27.10;72.60;;;;;;4125984;28;20046;-40
2022/01/14 01:37:38;;;;;;;6.47;2.28;;;27.20;72.70;;;;;;4128098;28;20420;-43
2022/01/14 01:40:01;;;;;;;9.63;2.03;;;27.20;72.70;;;;;;4125250;28;20037;-38
2022/01/14 01:42:28;;;;;;;4.97;1.60;;;27.20;72.70;;;;;;4115061;28;20054;-39
2022/01/14 01:44:51;;;;;;;5.32;2.17;;;27.30;72.80;;;;;;4122006;28;20050;-43
2022/01/14 01:47:13;;;;;;;7.07;1.67;;;27.30;72.80;;;;;;4126195;28;20801;-44
2022/01/14 01:49:38;;;;;;;4.35;1.60;;;27.40;73.00;;;;;;4133109;28;20038;-38
2022/01/14 01:52:01;;;;;;;8.35;2.35;;;27.40;72.70;;;;;;4130630;28;20045;-43
2022/01/14 01:54:24;;;;;;;6.77;2.07;;;27.40;72.70;;;;;;4125293;28;20053;-38
2022/01/14 01:56:47;;;;;;;;;;;27.40;72.70;;;;;;4133445;28;20038;-39
2022/01/14 01:59:09;;;;;;;7.68;1.92;;;27.50;72.70;;;;;;4130183;28;19917;-40
2022/01/14 02:01:33;;;;;;;8.25;2.00;;;27.50;72.90;;;;;;4133094;28;20569;-39
2022/01/14 02:03:56;;;;;;;6.38;2.10;;;27.50;72.50;;;;;;4135651;28;20050;-39
2022/01/14 02:06:19;;;;;;;6.20;2.03;;;27.50;72.20;;;;;;4129652;28;20073;-43
2022/01/14 02:08:41;;;;;;;;;;;27.60;72.60;;;;;;4133087;28;20061;-44
2022/01/14 02:11:04;;;;;;;6.80;2.10;;;27.50;72.30;;;;;;4127933;28;19975;-42
2022/01/14 02:13:27;;;;;;;5.93;1.88;;;27.60;72.20;;;;;;4130613;28;20075;-44
2022/01/14 02:18:28;;;;;;;4.27;1.80;;;27.70;71.80;;;;;;4131846;28;20038;-42
2022/01/14 02:23:33;;;;;;;4.25;1.42;;;27.80;72.80;;;;;;4128814;28;20073;-40
2022/01/14 02:25:55;;;;;;;3.35;1.98;;;27.80;73.00;;;;;;4129470;28;21611;-38
2022/01/14 02:28:18;;;;;;;3.78;1.70;;;27.80;72.60;;;;;;4132911;28;20454;-38
2022/01/14 02:30:42;;;;;;;4.07;1.92;;;27.80;72.40;;;;;;4135545;28;20053;-39
2022/01/14 02:33:05;;;;;;;6.30;1.70;;;27.80;72.30;;;;;;4130207;28;20045;-37
2022/01/14 02:35:28;;;;;;;4.55;1.77;;;27.90;72.30;;;;;;4127273;28;20541;-38
2022/01/14 02:37:51;;;;;;;6.82;1.80;;;27.90;72.40;;;;;;4130100;28;20069;-38
2022/01/14 02:40:14;;;;;;;4.67;1.70;;;27.90;72.50;;;;;;4130434;28;20034;-42
2022/01/14 02:42:37;;;;;;;3.58;2.10;;;27.90;72.60;;;;;;4136069;28;21081;-41
2022/01/14 02:45:04;;;;;;;3.67;1.58;;;27.90;72.70;;;;;;4128572;28;20108;-43
2022/01/14 02:47:26;;;;;;;4.97;1.80;;;27.90;72.50;;;;;;4127791;28;20061;-40
2022/01/14 02:49:48;;;;;;;4.85;1.90;;;27.90;72.50;;;;;;4124593;28;20042;-39
2022/01/14 02:52:12;;;;;;;4.00;1.70;;;28.00;72.60;;;;;;4126498;28;20034;-41
2022/01/14 02:55:02;;;;;;;2.33;1.52;;;28.00;72.60;;;;;;4124099;28;20037;-40
2022/01/14 02:57:23;;;;;;;3.63;1.65;;;28.00;72.50;;;;;;4123529;28;20049;-40
2022/01/14 02:59:47;;;;;;;3.22;1.60;;;28.00;72.50;;;;;;4120180;28;20045;-39
2022/01/14 03:02:10;;;;;;;2.55;1.42;;;28.00;72.50;;;;;;4120847;28;20089;-42
2022/01/14 03:04:36;;;;;;;3.20;1.60;;;28.10;72.40;;;;;;4120545;28;20095;-42
2022/01/14 03:06:59;;;;;;;4.30;1.75;;;28.10;72.40;;;;;;4126752;28;20418;-43
2022/01/14 03:09:21;;;;;;;1.73;1.20;;;28.10;72.30;;;;;;4123960;28;20049;-43
2022/01/14 03:11:58;;;;;;;2.70;1.70;;;28.10;72.30;;;;;;4129109;28;20132;-46
2022/01/14 03:14:24;;;;;;;3.85;1.70;;;28.20;72.30;;;;;;4127926;28;20179;-42
2022/01/14 03:16:48;;;;;;;4.18;1.52;;;28.20;71.80;;;;;;4124193;28;20114;-42
2022/01/14 03:19:17;;;;;;;2.88;1.52;;;28.20;71.50;;;;;;4126310;28;20109;-41
2022/01/14 03:21:41;;;;;;;2.05;1.30;;;28.20;71.30;;;;;;4112517;28;20340;-41
2022/01/14 03:26:49;;;;;;;3.65;1.63;;;28.20;70.80;;;;;;4121428;28;20045;-42
2022/01/14 03:29:13;;;;;;;2.85;1.40;;;28.20;70.70;;;;;;4125617;28;20031;-41
2022/01/14 03:31:34;;;;;;;;;;;28.20;70.60;;;;;;4125556;28;20042;-39
2022/01/14 03:33:57;;;;;;;3.90;1.42;;;28.30;70.90;;;;;;4126529;28;19913;-39
2022/01/14 03:36:19;;;;;;;4.80;1.67;;;28.30;71.70;;;;;;4128442;28;20152;-40
2022/01/14 03:38:42;;;;;;;2.83;1.60;;;28.30;71.10;;;;;;4129249;28;20042;-42
2022/01/14 03:41:05;;;;;;;2.20;1.33;;;28.30;71.10;;;;;;4128354;28;20157;-39
2022/01/14 03:43:28;;;;;;;3.03;1.70;;;28.30;71.00;;;;;;4126870;28;20070;-39
2022/01/14 03:45:50;;;;;;;3.42;1.65;;;28.40;71.20;;;;;;4125869;28;20078;-40
2022/01/14 03:48:13;;;;;;;4.03;1.45;;;28.40;71.20;;;;;;4133929;28;20224;-42
2022/01/14 03:50:36;;;;;;;2.30;1.48;;;28.40;71.20;;;;;;4132758;28;20059;-41
2022/01/14 03:52:59;;;;;;;3.42;1.50;;;28.50;71.20;;;;;;4123052;28;20232;-44
2022/01/14 03:55:22;;;;;;;3.00;1.40;;;28.50;71.10;;;;;;4115442;28;20042;-47
2022/01/14 03:57:44;;;;;;;4.40;1.70;;;28.60;71.30;;;;;;4125519;28;20295;-46
2022/01/14 04:00:08;;;;;;;3.20;1.55;;;28.60;71.30;;;;;;4126863;28;20038;-46
2022/01/14 04:02:32;;;;;;;2.67;1.20;;;28.60;71.20;;;;;;4127366;28;20062;-47
2022/01/14 04:04:54;;;;;;;2.55;1.35;;;28.60;71.10;;;;;;4125894;28;20122;-45
2022/01/14 04:07:17;;;;;;;2.67;1.40;;;28.60;71.00;;;;;;4124217;28;20108;-45
2022/01/14 04:09:41;;;;;;;5.15;1.58;;;28.70;71.00;;;;;;4126295;28;20459;-41
2022/01/14 04:12:07;;;;;;;;;;;28.70;71.00;;;;;;4125003;28;20034;-42
2022/01/14 04:16:56;;;;;;;2.67;1.08;;;28.80;70.80;;;;;;4127987;28;20113;-42
2022/01/14 04:19:19;;;;;;;2.28;1.30;;;28.80;70.70;;;;;;4127829;28;20034;-44
2022/01/14 04:21:42;;;;;;;7.95;1.58;;;28.80;70.70;;;;;;4125608;28;20042;-45
2022/01/14 04:24:05;;;;;;;3.80;1.40;;;28.90;70.80;;;;;;4128201;28;20050;-45
2022/01/14 04:26:28;;;;;;;2.80;1.60;;;28.90;70.70;;;;;;4125931;28;20054;-45
2022/01/14 04:28:52;;;;;;;2.85;1.50;;;28.90;70.60;;;;;;4124156;28;20034;-41
2022/01/14 04:31:15;;;;;;;2.55;1.35;;;29.00;70.50;;;;;;4129275;28;20493;-45
2022/01/14 04:33:38;;;;;;;2.50;1.50;;;29.10;70.50;;;;;;4126719;28;20042;-45
2022/01/14 04:36:02;;;;;;;4.25;1.60;;;29.10;70.30;;;;;;4136927;28;20038;-46
2022/01/14 04:38:27;;;;;;;6.57;1.80;;;29.20;70.30;;;;;;4130956;28;20125;-42
2022/01/14 04:40:50;;;;;;;4.68;1.50;;;29.20;70.10;;;;;;4122793;28;20034;-41
2022/01/14 04:43:16;;;;;;;3.08;1.60;;;29.30;67.70;;;;;;4127939;28;20376;-43
2022/01/14 04:45:43;;;;;;;4.70;1.60;;;29.20;64.20;;;;;;4122969;28;20038;-44
2022/01/14 04:48:09;;;;;;;2.88;1.55;;;29.10;61.80;;;;;;4111031;28;20765;-48
2022/01/14 04:50:32;;;;;;;3.42;1.63;;;28.90;60.60;;;;;;4123510;28;20743;-44
2022/01/14 04:52:55;;;;;;;;;;;28.80;62.00;;;;;;4121105;28;21075;-43
2022/01/14 04:55:23;;;;;;;3.60;1.30;;;28.80;63.30;;;;;;4124969;28;19910;-43
2022/01/14 04:57:47;;;;;;;3.28;1.60;;;28.80;64.20;;;;;;4123596;28;20034;-44
2022/01/14 05:00:16;;;;;;;3.25;1.52;;;28.90;65.00;;;;;;4128636;28;20751;-44
2022/01/14 05:02:41;;;;;;;3.45;1.88;;;29.00;65.30;;;;;;4125398;28;20034;-45
2022/01/14 05:05:05;;;;;;;3.33;1.75;;;29.10;65.50;;;;;;4132859;28;20132;-42
2022/01/14 05:07:29;;;;;;;2.50;1.80;;;29.10;65.60;;;;;;4128540;28;20045;-42
2022/01/14 05:10:08;;;;;;;2.08;1.52;;;29.20;64.20;;;;;;4127528;28;20049;-45
2022/01/14 05:12:33;;;;;;;2.03;1.33;;;29.10;61.10;;;;;;4130027;28;20037;-50
2022/01/14 05:14:56;;;;;;;2.80;1.60;;;28.90;58.90;;;;;;4127119;28;20392;-51
2022/01/14 05:17:19;;;;;;;2.22;1.50;;;28.80;58.60;;;;;;4127768;28;20046;-48
2022/01/14 05:19:42;;;;;;;2.67;1.63;;;28.70;60.10;;;;;;4131055;28;20046;-44
2022/01/14 05:22:05;;;;;;;1.70;1.52;;;28.70;61.40;;;;;;4130500;28;20872;-46
2022/01/14 05:24:29;;;;;;;2.33;1.70;;;28.70;62.30;;;;;;4122521;28;20046;-44
2022/01/14 05:26:52;;;;;;;2.80;1.80;;;28.80;62.90;;;;;;4116096;28;20729;-43
2022/01/14 05:29:15;;;;;;;3.33;1.67;;;28.80;63.20;;;;;;4129936;28;20113;-45
2022/01/14 05:31:43;;;;;;;3.35;1.73;;;28.80;63.40;;;;;;4132644;28;20155;-43
2022/01/14 05:34:06;;;;;;;2.80;1.60;;;29.00;63.70;;;;;;4124291;28;20038;-53
2022/01/14 05:36:29;;;;;;;2.53;1.60;;;29.00;63.60;;;;;;4128460;28;20124;-49
2022/01/14 05:38:53;;;;;;;2.42;1.80;;;28.90;60.30;;;;;;4127918;28;20045;-49
2022/01/14 05:41:18;;;;;;;4.32;1.50;;;28.80;58.30;;;;;;4125425;28;20112;-50
2022/01/14 05:43:41;;;;;;;3.05;1.70;;;28.70;57.80;;;;;;4126461;28;20050;-49
2022/01/14 05:46:35;;;;;;;2.90;1.65;;;28.70;59.30;;;;;;4131426;28;20533;-55
2022/01/14 05:54:03;;;;;;;;;;;;;;;;;;;;;
2022/01/14 05:56:56;;;;;;;2.38;1.50;;;28.80;63.00;;;;;;4168817;28;20045;-70
2022/01/14 05:59:18;;;;;;;2.17;1.60;;;28.90;63.70;;;;;;4166739;28;20064;-69
2022/01/14 06:01:41;;;;;;;2.38;1.33;;;28.90;64.20;;;;;;4162031;28;20029;-67
2022/01/14 06:04:03;;;;;;;;;;;29.00;62.90;;;;;;4166529;28;20161;-72
2022/01/14 06:06:26;;;;;;;4.28;3.33;;;28.90;63.30;;;;;;4160765;28;19913;-70
2022/01/14 06:08:49;;;;;;;6.07;3.60;;;28.80;66.60;;;;;;4162209;28;20490;-71
2022/01/14 06:11:11;;;;;;;4.20;3.25;;;28.80;65.70;;;;;;4147457;28;20033;-70
2022/01/14 06:13:34;;;;;;;6.50;3.70;;;28.70;65.80;;;;;;4157817;28;20048;-71
2022/01/14 06:15:56;;;;;;;6.30;3.80;;;28.80;66.10;;;;;;4158079;28;20037;-70
2022/01/14 06:18:19;;;;;;;6.68;3.42;;;28.80;66.40;;;;;;4154762;28;20784;-69
2022/01/14 06:20:42;;;;;;;6.80;3.45;;;28.90;66.70;;;;;;4158111;28;20116;-74
2022/01/14 06:23:04;;;;;;;7.97;3.50;;;28.90;67.00;;;;;;4157301;28;20032;-73
2022/01/14 06:25:27;;;;;;;8.32;3.28;;;28.90;67.10;;;;;;4163698;28;20475;-73
2022/01/14 06:27:49;;;;;;;8.53;3.47;;;28.90;67.20;;;;;;4153801;28;20029;-75
2022/01/14 06:30:12;;;;;;;8.85;3.70;;;29.00;67.30;;;;;;4162486;28;20029;-74
2022/01/14 06:32:41;;;;;;;8.43;3.80;;;29.00;67.40;;;;;;4161001;28;20068;-74
2022/01/14 06:35:04;;;;;;;6.10;5.15;;;29.00;65.10;;;;;;4162094;28;20034;-73
2022/01/14 06:37:26;;;;;;;12.07;9.37;;;28.90;61.10;;;;;;4145420;28;20029;-71
2022/01/14 06:39:51;;;;;;;14.13;10.25;;;28.80;59.20;;;;;;4140533;28;20044;-69
2022/01/14 06:42:13;;;;;;;14.10;10.95;;;28.60;59.30;;;;;;4148097;28;21082;-71
2022/01/14 06:44:35;;;;;;;12.25;10.02;;;28.50;60.80;;;;;;4150010;28;20061;-70
2022/01/14 06:46:58;;;;;;;16.40;10.10;;;28.50;61.70;;;;;;4146971;28;20061;-73
2022/01/14 06:49:20;;;;;;;12.27;9.10;;;28.60;62.60;;;;;;4139778;28;20488;-77
2022/01/14 06:51:43;;;;;;;14.02;8.63;;;28.60;63.20;;;;;;4156361;28;20104;-81
2022/01/14 06:54:05;;;;;;;11.63;8.75;;;28.60;63.70;;;;;;4141583;28;20050;-76
2022/01/14 06:56:28;;;;;;;14.57;8.90;;;28.70;64.10;;;;;;4151035;28;20048;-73
2022/01/14 06:58:50;;;;;;;11.38;8.45;;;28.70;64.40;;;;;;4152057;28;20112;-73
2022/01/14 07:01:13;;;;;;;13.05;7.80;;;28.80;64.70;;;;;;4145107;28;20534;-72
2022/01/14 07:03:35;;;;;;;11.93;8.30;;;28.80;64.90;;;;;;4137520;28;20045;-72
2022/01/14 07:05:58;;;;;;;12.70;9.00;;;28.80;65.40;;;;;;4153003;28;20073;-74
2022/01/14 07:08:20;;;;;;;13.23;10.65;;;28.80;61.30;;;;;;4133116;28;20814;-80
2022/01/14 07:10:43;;;;;;;15.75;11.82;;;28.60;58.20;;;;;;4149084;28;20474;-75
2022/01/14 07:13:05;;;;;;;15.25;11.68;;;28.40;58.30;;;;;;4144475;28;20055;-74
2022/01/14 07:15:28;;;;;;;13.68;11.95;;;28.30;59.20;;;;;;4133038;28;20038;-74
2022/01/14 07:17:50;;;;;;;13.45;10.93;;;28.30;60.00;;;;;;4145747;28;20112;-83
2022/01/14 07:20:26;;;;;;;13.65;11.48;;;28.30;61.50;;;;;;4150146;28;20072;-75
2022/01/14 07:22:50;;;;;;;17.08;11.80;;;28.40;61.30;;;;;;4139009;28;20043;-76
2022/01/14 07:25:12;;;;;;;16.77;10.27;;;28.40;62.20;;;;;;4143835;28;20072;-73
2022/01/14 07:27:35;;;;;;;13.60;10.73;;;28.50;62.70;;;;;;4145673;28;20096;-75
2022/01/14 07:29:58;;;;;;;13.35;10.82;;;28.50;63.00;;;;;;4140819;28;20037;-74
2022/01/14 07:32:21;;;;;;;12.20;10.23;;;28.60;63.50;;;;;;4136876;28;20061;-76
2022/01/14 07:34:45;;;;;;;16.40;11.18;;;28.60;63.60;;;;;;4151606;28;20041;-79
2022/01/14 07:37:07;;;;;;;15.10;11.63;;;28.60;61.40;;;;;;4146553;28;20108;-76
2022/01/14 07:39:48;;;;;;;19.33;12.98;;;28.50;58.80;;;;;;4148952;28;20045;-76
2022/01/14 07:42:11;;;;;;;14.48;12.80;;;28.20;57.70;;;;;;4140355;28;20069;-78
2022/01/14 07:44:34;;;;;;;14.85;11.90;;;28.20;59.40;;;;;;4150272;28;20046;-74
2022/01/14 07:47:00;;;;;;;15.43;12.10;;;28.20;60.00;;;;;;4152262;28;20033;-78
2022/01/14 07:49:22;;;;;;;13.15;11.75;;;28.20;60.90;;;;;;4146981;28;20038;-77
2022/01/14 07:51:45;;;;;;;14.95;11.45;;;28.20;61.40;;;;;;4147395;28;20034;-78
2022/01/14 07:54:11;;;;;;;16.00;11.15;;;28.30;61.80;;;;;;4153882;28;20041;-79
2022/01/14 07:56:38;;;;;;;14.68;11.23;;;28.30;62.30;;;;;;4148431;28;20526;-80
2022/01/14 07:59:01;;;;;;;15.75;11.75;;;28.40;62.70;;;;;;4151602;28;20041;-84
2022/01/14 08:01:23;;;;;;;14.88;11.60;;;28.40;62.80;;;;;;4145608;28;20522;-73
2022/01/14 08:04:07;;;;;;;14.75;11.65;;;28.40;62.70;;;;;;4154711;28;20034;-72
2022/01/14 08:06:32;;;;;;;12.55;10.70;;;28.50;63.00;;;;;;4137355;28;20038;-75
2022/01/14 08:08:54;;;;;;;17.05;11.77;;;28.50;63.40;;;;;;4140166;28;20064;-75
2022/01/14 08:11:17;;;;;;;16.83;11.52;;;28.50;63.70;;;;;;4143395;28;20030;-75
2022/01/14 08:13:39;;;;;;;21.35;14.50;;;28.50;61.10;;;;;;4144527;28;20091;-71
2022/01/14 08:16:02;;;;;;;21.88;15.65;;;28.30;58.60;;;;;;4154406;28;20377;-72
2022/01/14 08:18:25;;;;;;;19.42;15.05;;;28.10;57.80;;;;;;4131549;28;20102;-75
2022/01/14 08:20:47;;;;;;;17.98;15.13;;;28.00;59.20;;;;;;4152625;28;20121;-73
2022/01/14 08:23:10;;;;;;;21.45;15.68;;;28.00;60.20;;;;;;4155614;28;20385;-73
2022/01/14 08:25:32;;;;;;;19.27;15.10;;;28.10;61.00;;;;;;4153166;28;20053;-72
2022/01/14 08:27:55;;;;;;;19.40;14.20;;;28.20;61.70;;;;;;4154015;28;20075;-74
2022/01/14 08:30:17;;;;;;;21.60;14.93;;;28.20;62.10;;;;;;4151277;28;20055;-77
2022/01/14 08:32:40;;;;;;;21.55;14.23;;;28.20;62.60;;;;;;4152541;28;20132;-79
2022/01/14 08:35:03;;;;;;;19.25;13.63;;;28.30;63.00;;;;;;4150965;28;20041;-75
2022/01/14 08:37:27;;;;;;;16.65;13.05;;;28.30;63.30;;;;;;4151939;28;20087;-74
2022/01/14 08:39:49;;;;;;;19.77;13.02;;;28.40;63.70;;;;;;4147665;28;20117;-72
2022/01/14 08:42:13;;;;;;;18.50;11.95;;;28.40;63.80;;;;;;4151412;28;20053;-69
2022/01/14 08:44:39;;;;;;;14.75;11.82;;;28.40;64.00;;;;;;4149693;28;20045;-72
2022/01/14 08:47:02;;;;;;;12.50;11.18;;;28.50;64.20;;;;;;4134589;28;20044;-71
2022/01/14 08:49:25;;;;;;;16.13;11.57;;;28.40;63.90;;;;;;4133968;28;20042;-70
2022/01/14 08:51:51;;;;;;;14.82;12.23;;;28.40;59.90;;;;;;4132275;28;20061;-70
2022/01/14 08:54:14;;;;;;;17.50;11.15;;;28.20;57.70;;;;;;4146301;28;20054;-70
2022/01/14 08:56:37;;;;;;;15.43;11.25;;;28.00;57.90;;;;;;4142075;28;20036;-71
2022/01/14 08:59:00;;;;;;;16.75;11.00;;;27.90;59.10;;;;;;4146578;28;20033;-70
2022/01/14 09:01:23;;;;;;;14.00;10.95;;;28.00;59.90;;;;;;4134787;28;20163;-70
2022/01/14 09:03:46;;;;;;;14.77;10.45;;;28.00;60.60;;;;;;4137936;28;20088;-73
2022/01/14 09:06:08;;;;;;;16.17;10.02;;;28.00;61.20;;;;;;4144311;28;20084;-71
2022/01/14 09:08:31;;;;;;;13.02;10.00;;;28.10;61.70;;;;;;4135873;28;20638;-71
2022/01/14 09:10:54;;;;;;;14.52;9.52;;;28.10;62.80;;;;;;4142989;28;20048;-69
2022/01/14 09:13:17;;;;;;;12.75;9.57;;;28.20;62.50;;;;;;4143364;28;20037;-69
2022/01/14 09:15:39;;;;;;;;;;;28.20;62.80;;;;;;4146502;28;20503;-71
2022/01/14 09:18:02;;;;;;;11.38;9.15;;;28.20;63.00;;;;;;4144675;28;19952;-72
2022/01/14 09:20:24;;;;;;;13.40;9.40;;;28.30;63.30;;;;;;4150309;28;20467;-71
2022/01/14 09:22:51;;;;;;;14.57;9.20;;;28.30;63.40;;;;;;4149074;28;20060;-71
2022/01/14 09:25:14;;;;;;;12.98;8.77;;;28.30;63.60;;;;;;4148734;28;20072;-71
2022/01/14 09:27:37;;;;;;;9.43;8.02;;;28.30;63.60;;;;;;4145783;28;20041;-73
2022/01/14 09:30:00;;;;;;;13.52;8.27;;;28.40;63.90;;;;;;4137628;28;20411;-71
2022/01/14 09:32:22;;;;;;;9.43;8.30;;;28.40;63.90;;;;;;4149927;28;20144;-72
2022/01/14 09:34:45;;;;;;;8.63;7.60;;;28.40;64.10;;;;;;4142930;28;20068;-70
2022/01/14 09:37:08;;;;;;;11.70;7.18;;;28.40;64.10;;;;;;4141966;28;20508;-71
2022/01/14 09:39:32;;;;;;;10.60;7.43;;;28.40;64.20;;;;;;4150374;28;20459;-72
2022/01/14 09:41:55;;;;;;;10.00;7.30;;;28.40;64.20;;;;;;4151131;28;20124;-72
2022/01/14 09:44:18;;;;;;;14.45;7.13;;;28.50;64.40;;;;;;4145950;28;20049;-70
2022/01/14 09:46:41;;;;;;;10.85;7.45;;;28.50;64.50;;;;;;4149503;28;20120;-69
2022/01/14 09:49:03;;;;;;;14.77;7.00;;;28.50;64.60;;;;;;4135239;28;20034;-69
2022/01/14 09:51:26;;;;;;;8.90;6.65;;;28.50;64.60;;;;;;4145361;28;20389;-70
2022/01/14 09:53:49;;;;;;;11.88;6.75;;;28.50;64.70;;;;;;4142504;28;20042;-69
2022/01/14 09:56:15;;;;;;;8.95;6.50;;;28.50;65.10;;;;;;4144985;28;20038;-71
2022/01/14 09:58:41;;;;;;;9.63;5.93;;;28.50;63.50;;;;;;4145355;28;20530;-70
2022/01/14 10:01:11;;;;;;;6.88;5.68;;;28.40;59.50;;;;;;4148468;28;20530;-70
2022/01/14 10:03:34;;;;;;;6.60;4.85;;;28.30;57.50;;;;;;4148123;28;20045;-69
2022/01/14 10:05:57;;;;;;;7.20;5.43;;;28.10;58.80;;;;;;4138550;28;20508;-70
2022/01/14 10:08:26;;;;;;;6.93;4.85;;;28.10;59.80;;;;;;4148109;28;20049;-70
2022/01/14 10:10:56;;;;;;;7.82;5.78;;;28.10;60.60;;;;;;4147662;28;20042;-70
2022/01/14 10:13:25;;;;;;;7.57;5.32;;;28.10;61.50;;;;;;4149274;28;20025;-70
2022/01/14 10:15:50;;;;;;;7.15;5.45;;;28.10;62.10;;;;;;4152327;28;20479;-71
2022/01/14 10:18:15;;;;;;;6.22;4.82;;;28.20;62.80;;;;;;4147052;28;20037;-70
2022/01/14 10:20:38;;;;;;;6.40;5.20;;;28.20;63.20;;;;;;4146753;28;20034;-70
2022/01/14 10:23:01;;;;;;;7.75;4.72;;;28.20;63.50;;;;;;4149720;28;20034;-72
2022/01/14 10:25:23;;;;;;;7.18;5.05;;;28.20;63.90;;;;;;4135844;28;20053;-73
2022/01/14 10:27:52;;;;;;;11.32;5.22;;;28.30;64.20;;;;;;4136766;28;20037;-72
2022/01/14 10:30:14;;;;;;;8.10;5.05;;;28.30;64.40;;;;;;4148106;28;20048;-71
2022/01/14 10:32:38;;;;;;;7.40;4.78;;;28.30;64.50;;;;;;4151062;28;20087;-71
2022/01/14 10:35:06;;;;;;;12.18;4.72;;;28.30;64.40;;;;;;4148949;28;20036;-71
2022/01/14 10:37:34;;;;;;;8.02;4.93;;;28.30;64.50;;;;;;4148893;28;20817;-73
2022/01/14 10:39:56;;;;;;;7.50;4.55;;;28.40;64.70;;;;;;4144962;28;20029;-73
2022/01/14 10:42:33;;;;;;;7.30;4.35;;;28.40;64.70;;;;;;4147984;28;20209;-74
2022/01/14 10:45:13;;;;;;;6.43;4.50;;;28.40;64.70;;;;;;4137728;28;20128;-73
2022/01/14 10:47:35;;;;;;;8.65;4.40;;;28.40;64.70;;;;;;4132027;28;20033;-74
2022/01/14 10:49:59;;;;;;;7.47;4.40;;;28.40;64.90;;;;;;4136647;28;20041;-72
2022/01/14 10:52:24;;;;;;;7.43;4.55;;;28.40;64.90;;;;;;4145145;28;20495;-73
2022/01/14 10:54:53;;;;;;;9.27;4.18;;;28.40;65.00;;;;;;4146911;28;20069;-72
2022/01/14 10:57:18;;;;;;;12.05;3.97;;;28.50;65.20;;;;;;4135886;28;20046;-73
2022/01/14 10:59:40;;;;;;;5.07;3.53;;;28.40;65.40;;;;;;4137634;28;20098;-72
2022/01/14 11:02:23;;;;;;;9.20;3.88;;;28.50;65.50;;;;;;4147194;28;20041;-82
2022/01/14 11:05:10;;;;;;;7.28;3.70;;;28.50;65.50;;;;;;4143555;28;20579;-75
2022/01/14 11:07:32;;;;;;;9.23;3.75;;;28.50;65.40;;;;;;4153586;28;20199;-75
2022/01/14 11:09:59;;;;;;;7.68;4.25;;;28.50;65.40;;;;;;4140423;28;20042;-74
2022/01/14 11:12:22;;;;;;;8.25;3.85;;;28.50;65.30;;;;;;4146755;28;20041;-75
2022/01/14 11:14:45;;;;;;;8.10;3.97;;;28.50;65.40;;;;;;4148975;28;20041;-74
2022/01/14 11:17:09;;;;;;;6.20;3.53;;;28.50;65.50;;;;;;4148091;28;20266;-74
2022/01/14 11:19:32;;;;;;;14.82;3.97;;;28.60;65.60;;;;;;4141837;28;20696;-75
2022/01/14 11:24:37;;;;;;;5.85;3.45;;;28.50;65.60;;;;;;4151481;28;20462;-74
2022/01/14 11:27:16;;;;;;;7.88;3.50;;;28.60;65.60;;;;;;4135755;28;20499;-73
2022/01/14 11:29:51;;;;;;;4.90;3.30;;;28.60;65.70;;;;;;4148456;28;20046;-75
2022/01/14 11:32:14;;;;;;;5.00;3.05;;;28.60;65.60;;;;;;4149995;28;20042;-74
2022/01/14 11:34:41;;;;;;;5.38;3.20;;;28.60;65.80;;;;;;4150773;28;20045;-73
2022/01/14 11:37:16;;;;;;;7.90;3.40;;;28.60;66.00;;;;;;4151875;28;20033;-74
2022/01/14 11:39:39;;;;;;;4.63;2.90;;;28.60;66.00;;;;;;4152657;28;20048;-71
2022/01/14 11:42:05;;;;;;;8.07;3.65;;;28.60;66.10;;;;;;4154676;28;20419;-72
2022/01/14 11:44:54;;;;;;;6.20;3.45;;;28.60;66.20;;;;;;4152414;28;20049;-71
2022/01/14 11:47:27;;;;;;;5.40;2.90;;;28.60;66.30;;;;;;4150802;28;20045;-71
2022/01/14 11:49:50;;;;;;;8.88;2.97;;;28.60;66.30;;;;;;4150217;28;20068;-71
2022/01/14 11:52:12;;;;;;;4.75;2.75;;;28.60;66.40;;;;;;4132393;28;20072;-73
2022/01/14 11:55:02;;;;;;;4.93;2.83;;;28.60;66.50;;;;;;4139072;28;20442;-71
2022/01/14 11:57:44;;;;;;;5.28;2.67;;;28.60;66.40;;;;;;4149253;28;20037;-72
2022/01/14 12:03:17;;;;;;;4.07;2.70;;;28.60;66.40;;;;;;4150325;28;20120;-70
2022/01/14 12:05:55;;;;;;;6.15;3.03;;;28.70;66.50;;;;;;4131897;28;20050;-72
2022/01/14 12:08:20;;;;;;;5.85;3.05;;;28.70;66.70;;;;;;4154599;28;20033;-74
2022/01/14 12:10:56;;;;;;;4.80;2.67;;;28.70;66.60;;;;;;4144732;28;20037;-72
2022/01/14 12:13:43;;;;;;;6.22;3.00;;;28.70;66.60;;;;;;4146059;28;20029;-73
2022/01/14 12:16:10;;;;;;;3.92;2.47;;;28.70;66.70;;;;;;4147594;28;20037;-74
2022/01/14 12:19:02;;;;;;;5.88;2.80;;;28.70;66.70;;;;;;4148426;28;20038;-73
2022/01/14 12:21:49;;;;;;;6.95;2.88;;;28.70;66.70;;;;;;4149834;28;20052;-73
2022/01/14 12:24:17;;;;;;;6.40;2.97;;;28.70;66.80;;;;;;4139906;28;20108;-73
2022/01/14 12:26:39;;;;;;;3.95;2.33;;;28.70;66.70;;;;;;4150485;28;20072;-73
2022/01/14 12:29:16;;;;;;;5.05;2.58;;;28.70;66.70;;;;;;4147312;28;20045;-72
2022/01/14 12:32:04;;;;;;;4.00;2.40;;;28.70;66.70;;;;;;4146208;28;20034;-73
2022/01/14 12:34:27;;;;;;;5.00;2.58;;;28.70;66.70;;;;;;4147309;28;20050;-73
2022/01/14 12:36:49;;;;;;;5.13;2.63;;;28.70;66.70;;;;;;4147994;28;20036;-72
2022/01/14 12:39:12;;;;;;;5.13;2.33;;;28.70;66.80;;;;;;4147553;28;20039;-73
2022/01/14 12:41:34;;;;;;;3.85;2.75;;;28.70;66.80;;;;;;4149672;28;20038;-73
2022/01/14 12:44:06;;;;;;;6.15;2.67;;;28.70;66.80;;;;;;4150304;28;20109;-72
2022/01/14 12:46:52;;;;;;;4.50;2.47;;;28.70;66.90;;;;;;4152469;28;20092;-72
2022/01/14 12:49:33;;;;;;;4.72;2.20;;;28.70;66.90;;;;;;4155994;28;20042;-73
2022/01/14 12:52:06;;;;;;;5.32;2.85;;;28.70;66.80;;;;;;4151365;28;20153;-73
2022/01/14 12:54:34;;;;;;;4.53;2.30;;;28.70;66.70;;;;;;4149585;28;20156;-72
2022/01/14 12:56:57;;;;;;;5.38;2.33;;;28.70;66.70;;;;;;4146528;28;20033;-74
2022/01/14 12:59:19;;;;;;;4.05;2.40;;;28.70;66.70;;;;;;4134179;28;20085;-73
2022/01/14 13:01:50;;;;;;;5.57;2.28;;;28.70;66.80;;;;;;4135348;28;20049;-73
2022/01/14 13:04:15;;;;;;;4.63;2.47;;;28.70;66.70;;;;;;4147483;28;20053;-72
2022/01/14 13:06:57;;;;;;;4.10;2.28;;;28.70;66.70;;;;;;4144907;28;20424;-72
2022/01/14 13:09:34;;;;;;;4.40;2.22;;;28.70;66.70;;;;;;4130612;28;20129;-73